Terminal Aerodrome Forecast
Issued by NWS Greer, SC

Home | Current Version | Previous Version | Text Only | Print | Product List | Glossary On
Versions: 1 2 3 4 5 6 7 8 9 10 11 12 13 14 15 16
000
FTUS42 KGSP 211132
TAFAVL
TAF
KAVL 211132Z 2112/2212 34004KT P6SM FEW250
     FM211800 35006KT P6SM VCTS SCT045CB PROB30 2121/2124 4SM -TSRA
      BKN045CB
     FM220400 00000KT P6SM SCT060
     FM220900 00000KT 5SM BR FEW250=

USA.gov is the U.S. government's official web portal to all federal, state and local government web resources and services.